Crozet, VA

11:46 PM EST on February 08, 2016 (GMT -0500)
Crozet Elementary | | Change Station
CLOSE
Current Station
Personal Weather Station
Location: Crozet, VA
Elevation: 692 ft
Nearby Weather Stations

Elev 692 ft 38.07 °N, 78.70 °W | Updated 14 seconds ago

Mostly Cloudy
Mostly Cloudy
35.8 °F
Feels Like 36 °F
N
0.0
Wind Variable Wind from East
Gusts 0.0 mph

Today
High -- | Low -- °F
--% Chance of Precip.
Yesterday
High -- | Low -- °F
Precip. -- in
Pressure 29.61 in
Visibility 5.0 miles
Clouds Scattered Clouds 400 ft
Scattered Clouds 1100 ft
Overcast 2000 ft
Windchill 36 °F
Dew Point 34 °F
Humidity 95%
Rainfall 0.02 in
Snow Depth Not available.
7:13 AM 5:45 PM
New Moon, 0% visible
SPECI KCHO 090434Z 04003KT 5SM BR SCT004 SCT011 OVC020 03/01 A2961 RMK AO2 T00280011
Pressure 29.61 in
Visibility 5.0 miles
Clouds Scattered Clouds 400 ft
Scattered Clouds 1100 ft
Overcast 2000 ft
Windchill 36 °F
Dew Point 34 °F
Humidity 95%
Rainfall 0.02 in
Snow Depth Not available.
7:13 AM 5:45 PM
New Moon, 0% visible
SPECI KCHO 090434Z 04003KT 5SM BR SCT004 SCT011 OVC020 03/01 A2961 RMK AO2 T00280011

10-Day Weather Forecast

Almanac

Astronomy

Feb. 08, 2016 Rise Set
Actual Time
Civil Twilight
Nautical Twilight
Astronomical Twilight
Moon
Length of Visible Light
Length of Day
Tomorrow will be .
, % of the Moon is Illuminated

Today's Extremes

State Highs State Lows

Community

WunderPhotos

Upload Photos

1,891,549 photos uploaded!

WunderBlog® & News

Nearby

Air Quality

  Air Quality AQ Index Pollutant
Not available.

Snow Depth

Station Depth Elevation

Earthquake Activity

City Distance Mag. Time & Date
Minimum magnitude displayed is 2.5.

Coastal Water Temperatures

Place Temperature

Stations

Nearby Weather Stations

Station Location Temp. Windchill Dew Point Humidity Wind Precip. Elev Updated Type
                   

Watches & Warnings

There are currently no watches in effect.